Time;durP1;ratioP1;P1;durP2;ratioP2;P2;SDS_P1;SDS_P2;PMS_P1;PMS_P2;Temp;Humidity;BMP_temperature;BMP_pressure;BME280_temperature;BME280_humidity;BME280_pressure;Samples;Min_cycle;Max_cycle;Signal;HPM_P1;HPM_P2
2023/09/17 00:00:04;;;;;;;8.83;8.03;;;19.10;99.90;;;;;;5023688;28;20422;-66
2023/09/17 00:02:30;;;;;;;9.47;8.47;;;19.10;99.90;;;;;;5041027;28;20761;-65
2023/09/17 00:04:56;;;;;;;9.00;8.10;;;19.10;99.90;;;;;;5035839;28;20244;-65
2023/09/17 00:07:22;;;;;;;9.70;8.73;;;19.00;99.90;;;;;;5031057;28;20281;-67
2023/09/17 00:09:47;;;;;;;9.63;8.67;;;19.00;99.90;;;;;;5039085;28;20205;-68
2023/09/17 00:12:13;;;;;;;11.50;9.50;;;19.00;99.90;;;;;;5032066;28;20708;-65
2023/09/17 00:14:39;;;;;;;9.80;8.80;;;19.00;99.90;;;;;;5018058;28;20691;-62
2023/09/17 00:17:04;;;;;;;9.40;8.50;;;19.10;99.90;;;;;;5032237;28;20214;-62
2023/09/17 00:19:32;;;;;;;9.87;8.87;;;19.10;99.90;;;;;;5040626;28;20728;-63
2023/09/17 00:21:58;;;;;;;10.13;8.43;;;19.10;99.90;;;;;;5014414;28;20284;-65
2023/09/17 00:24:24;;;;;;;11.10;8.97;;;19.10;99.90;;;;;;5035717;28;20278;-65
2023/09/17 00:26:50;;;;;;;10.17;9.07;;;19.00;99.90;;;;;;5036654;28;20193;-64
2023/09/17 00:29:15;;;;;;;8.90;8.03;;;19.00;99.90;;;;;;5010167;28;20562;-65
2023/09/17 00:31:41;;;;;;;9.23;7.90;;;19.00;99.90;;;;;;5032091;28;20643;-59
2023/09/17 00:34:06;;;;;;;9.37;8.47;;;18.90;99.90;;;;;;5034138;28;20570;-59
2023/09/17 00:36:32;;;;;;;9.23;8.33;;;18.90;99.90;;;;;;5035716;28;20304;-59
2023/09/17 00:38:57;;;;;;;11.03;9.20;;;18.90;99.90;;;;;;5030210;28;20249;-62
2023/09/17 00:41:22;;;;;;;11.27;8.77;;;18.80;99.90;;;;;;5027886;28;20206;-65
2023/09/17 00:43:48;;;;;;;9.80;8.90;;;18.80;99.90;;;;;;5039317;28;20672;-65
2023/09/17 00:46:14;;;;;;;11.07;8.30;;;18.70;99.90;;;;;;5016100;28;20214;-68
2023/09/17 00:48:41;;;;;;;9.37;8.33;;;18.70;99.90;;;;;;5045921;28;20284;-65
2023/09/17 00:51:07;;;;;;;9.77;8.57;;;18.70;99.90;;;;;;5038090;28;20901;-64
2023/09/17 00:53:32;;;;;;;9.70;8.53;;;18.60;99.90;;;;;;5022683;28;20232;-64
2023/09/17 00:55:59;;;;;;;8.80;7.73;;;18.60;99.90;;;;;;5037889;28;20224;-65
2023/09/17 00:58:28;;;;;;;9.67;8.50;;;18.60;99.90;;;;;;5038091;28;20442;-65
2023/09/17 01:00:54;;;;;;;9.90;8.67;;;18.60;99.90;;;;;;5020386;28;20736;-67
2023/09/17 01:03:20;;;;;;;10.17;9.20;;;18.60;99.90;;;;;;5041069;28;20188;-68
2023/09/17 01:05:46;;;;;;;11.90;8.67;;;18.60;99.90;;;;;;5016222;28;20209;-62
2023/09/17 01:08:12;;;;;;;10.70;8.27;;;18.50;99.90;;;;;;5037939;28;20213;-64
2023/09/17 01:10:41;;;;;;;9.33;8.10;;;18.50;99.90;;;;;;5028548;28;20210;-74
2023/09/17 01:13:08;;;;;;;9.03;8.13;;;18.50;99.90;;;;;;5039090;28;21060;-73
2023/09/17 01:15:34;;;;;;;9.27;8.13;;;18.50;99.90;;;;;;5033903;28;20202;-72
2023/09/17 01:18:01;;;;;;;8.93;8.03;;;18.50;99.90;;;;;;5039740;28;20223;-71
2023/09/17 01:20:33;;;;;;;10.20;8.97;;;18.50;99.90;;;;;;5033556;28;20662;-73
2023/09/17 01:23:04;;;;;;;9.30;8.40;;;18.40;99.90;;;;;;5034067;28;20198;-72
2023/09/17 01:25:42;;;;;;;10.23;9.13;;;18.40;99.90;;;;;;5029502;28;20205;-64
2023/09/17 01:28:12;;;;;;;9.43;8.50;;;18.40;99.90;;;;;;5041641;28;20194;-63
2023/09/17 01:30:41;;;;;;;10.00;9.00;;;18.30;99.90;;;;;;5033135;28;20205;-64
2023/09/17 01:33:09;;;;;;;8.77;8.00;;;18.20;99.90;;;;;;5029705;28;20202;-63
2023/09/17 01:35:41;;;;;;;10.17;9.13;;;18.20;99.90;;;;;;5041152;28;20195;-63
2023/09/17 01:38:09;;;;;;;9.53;8.27;;;18.10;99.90;;;;;;5039342;28;20256;-63
2023/09/17 01:40:35;;;;;;;10.13;9.03;;;18.10;99.90;;;;;;5035606;28;20202;-63
2023/09/17 01:43:01;;;;;;;9.20;8.30;;;18.00;99.90;;;;;;5037022;28;20576;-69
2023/09/17 01:45:28;;;;;;;9.67;8.77;;;18.00;99.90;;;;;;5010988;28;20641;-71
2023/09/17 01:47:54;;;;;;;10.33;8.73;;;18.00;99.90;;;;;;5036949;28;20218;-71
2023/09/17 01:50:23;;;;;;;10.50;8.67;;;17.90;99.90;;;;;;5036473;28;20565;-68
2023/09/17 01:52:49;;;;;;;10.40;8.63;;;17.90;99.90;;;;;;5034130;28;20221;-63
2023/09/17 01:55:14;;;;;;;10.30;9.30;;;17.90;99.90;;;;;;5035986;28;20215;-64
2023/09/17 01:57:41;;;;;;;9.63;8.27;;;17.90;99.90;;;;;;5032541;28;20266;-65
2023/09/17 02:00:14;;;;;;;10.90;9.90;;;17.90;99.90;;;;;;5034879;28;20209;-63
2023/09/17 02:02:46;;;;;;;11.10;10.03;;;17.90;99.90;;;;;;5034693;28;20242;-63
2023/09/17 02:05:16;;;;;;;13.03;11.77;;;17.80;99.90;;;;;;5035665;28;20259;-62
2023/09/17 02:07:43;;;;;;;13.70;10.60;;;17.80;99.90;;;;;;5039625;28;20247;-64
2023/09/17 02:10:08;;;;;;;11.47;9.53;;;17.80;99.90;;;;;;5028760;28;20247;-64
2023/09/17 02:12:34;;;;;;;10.93;9.93;;;17.80;99.90;;;;;;5016239;28;20953;-63
2023/09/17 02:14:59;;;;;;;10.23;9.07;;;17.70;99.90;;;;;;5034365;28;20210;-64
2023/09/17 02:17:25;;;;;;;11.23;10.03;;;17.70;99.90;;;;;;5036602;28;20206;-63
2023/09/17 02:19:50;;;;;;;10.57;9.57;;;17.70;99.90;;;;;;5018764;28;20253;-65
2023/09/17 02:22:16;;;;;;;10.03;8.97;;;17.80;99.90;;;;;;5033992;28;20206;-63
2023/09/17 02:24:41;;;;;;;10.40;9.40;;;17.80;99.90;;;;;;5033447;28;20548;-65
2023/09/17 02:27:07;;;;;;;10.20;9.20;;;17.80;99.90;;;;;;5035672;28;20197;-65
2023/09/17 02:29:32;;;;;;;11.40;9.60;;;17.70;99.90;;;;;;5035162;28;20407;-63
2023/09/17 02:31:58;;;;;;;11.00;9.90;;;17.70;99.90;;;;;;5013193;28;20225;-64
2023/09/17 02:34:23;;;;;;;10.47;9.43;;;17.70;99.90;;;;;;5037180;28;20261;-64
2023/09/17 02:36:49;;;;;;;9.77;8.77;;;17.70;99.90;;;;;;5036296;28;20296;-64
2023/09/17 02:39:14;;;;;;;11.73;10.53;;;17.70;99.90;;;;;;5035736;28;20204;-64
2023/09/17 02:41:40;;;;;;;11.57;9.57;;;17.70;99.90;;;;;;5035876;28;20205;-65
2023/09/17 02:44:06;;;;;;;10.40;9.47;;;17.70;99.90;;;;;;5026565;28;20207;-64
2023/09/17 02:46:32;;;;;;;10.87;8.63;;;17.60;99.90;;;;;;5041365;28;20730;-63
2023/09/17 02:48:57;;;;;;;10.80;9.03;;;17.60;99.90;;;;;;5035902;28;20815;-64
2023/09/17 02:51:23;;;;;;;10.20;9.13;;;17.60;99.90;;;;;;5033732;28;20226;-62
2023/09/17 02:53:49;;;;;;;10.07;9.07;;;17.60;99.90;;;;;;5037916;28;20233;-62
2023/09/17 02:56:15;;;;;;;10.50;9.50;;;17.60;99.90;;;;;;5039792;28;20938;-63
2023/09/17 02:58:40;;;;;;;10.00;9.00;;;17.50;99.90;;;;;;5021590;28;20193;-63
2023/09/17 03:01:17;;;;;;;12.10;8.73;;;17.50;99.90;;;;;;5035088;28;20206;-64
2023/09/17 03:03:46;;;;;;;9.00;8.10;;;17.50;99.90;;;;;;5035887;28;20191;-64
2023/09/17 03:06:12;;;;;;;16.17;11.97;;;17.40;99.90;;;;;;5012741;28;20583;-63
2023/09/17 03:08:41;;;;;;;14.33;11.27;;;17.40;99.90;;;;;;5019485;28;20199;-63
2023/09/17 03:11:10;;;;;;;10.50;9.37;;;17.30;99.90;;;;;;5036776;28;20281;-63
2023/09/17 03:13:36;;;;;;;10.67;8.67;;;17.20;99.90;;;;;;5037227;28;20703;-63
2023/09/17 03:16:01;;;;;;;9.50;8.60;;;17.20;99.90;;;;;;5039447;28;20201;-68
2023/09/17 03:18:27;;;;;;;10.40;9.40;;;17.20;99.90;;;;;;5035466;28;20200;-69
2023/09/17 03:20:53;;;;;;;10.77;9.77;;;17.10;99.90;;;;;;5039742;28;20206;-70
2023/09/17 03:23:18;;;;;;;9.73;8.83;;;17.10;99.90;;;;;;5034069;28;20237;-62
2023/09/17 03:25:44;;;;;;;9.37;8.47;;;17.10;99.90;;;;;;5033789;28;20204;-63
2023/09/17 03:28:11;;;;;;;10.10;9.10;;;17.10;99.90;;;;;;5038549;28;20203;-71
2023/09/17 03:30:37;;;;;;;9.57;8.73;;;17.10;99.90;;;;;;5017624;28;20200;-71
2023/09/17 03:33:03;;;;;;;12.67;9.50;;;17.10;99.90;;;;;;5034280;28;20205;-71
2023/09/17 03:35:29;;;;;;;9.77;8.77;;;17.10;99.90;;;;;;5037107;28;20296;-62
2023/09/17 03:37:54;;;;;;;11.37;10.23;;;17.10;99.90;;;;;;5035486;28;20198;-63
2023/09/17 03:40:20;;;;;;;11.90;9.77;;;17.10;99.90;;;;;;5035605;28;20209;-73
2023/09/17 03:42:47;;;;;;;11.37;10.27;;;17.10;99.90;;;;;;5032041;28;20282;-73
2023/09/17 03:45:13;;;;;;;13.07;10.73;;;17.10;99.90;;;;;;5030910;28;20698;-72
2023/09/17 03:47:40;;;;;;;9.37;8.60;;;17.10;99.90;;;;;;5035358;28;20622;-71
2023/09/17 03:50:08;;;;;;;10.90;9.23;;;17.10;99.90;;;;;;5039334;28;20208;-72
2023/09/17 03:52:38;;;;;;;13.30;9.37;;;17.10;99.90;;;;;;5034778;28;20234;-73
2023/09/17 03:55:08;;;;;;;13.03;11.70;;;17.10;99.90;;;;;;5033709;28;20212;-63
2023/09/17 03:57:35;;;;;;;12.80;11.43;;;17.20;99.90;;;;;;5041767;28;20272;-63
2023/09/17 04:00:06;;;;;;;12.27;11.07;;;17.20;99.90;;;;;;5036093;28;20222;-63
2023/09/17 04:02:35;;;;;;;12.90;11.53;;;17.20;99.90;;;;;;5035971;28;20197;-70
2023/09/17 04:05:08;;;;;;;12.23;10.80;;;17.20;99.90;;;;;;5030947;28;20230;-71
2023/09/17 04:07:34;;;;;;;13.10;11.83;;;17.10;99.90;;;;;;5015971;28;20300;-71
2023/09/17 04:10:00;;;;;;;12.37;11.17;;;17.10;99.90;;;;;;5034185;28;20669;-71
2023/09/17 04:12:25;;;;;;;14.83;11.30;;;17.00;99.90;;;;;;5014102;28;20210;-70
2023/09/17 04:14:50;;;;;;;12.27;10.83;;;17.00;99.90;;;;;;5034132;28;20229;-71
2023/09/17 04:17:16;;;;;;;11.90;10.70;;;17.00;99.90;;;;;;5036752;28;20195;-71
2023/09/17 04:19:41;;;;;;;11.50;10.33;;;17.00;99.90;;;;;;5040139;28;20279;-72
2023/09/17 04:22:07;;;;;;;11.37;10.17;;;17.00;99.90;;;;;;5043018;28;20201;-71
2023/09/17 04:24:32;;;;;;;11.33;10.33;;;17.00;99.90;;;;;;5039341;28;20204;-69
2023/09/17 04:26:58;;;;;;;14.10;10.50;;;17.00;99.90;;;;;;5039246;28;20208;-69
2023/09/17 04:29:23;;;;;;;12.33;11.00;;;17.00;99.90;;;;;;5035030;28;20201;-70
2023/09/17 04:31:51;;;;;;;12.47;11.27;;;17.00;99.90;;;;;;5038886;28;20211;-69
2023/09/17 04:34:17;;;;;;;12.43;11.17;;;17.00;99.90;;;;;;5039306;28;20940;-70
2023/09/17 04:36:43;;;;;;;12.10;10.90;;;17.00;99.90;;;;;;5036049;28;20200;-69
2023/09/17 04:39:10;;;;;;;14.27;11.33;;;16.90;99.90;;;;;;5041022;28;20205;-69
2023/09/17 04:41:36;;;;;;;11.90;10.67;;;16.90;99.90;;;;;;5037832;28;20593;-70
2023/09/17 04:44:03;;;;;;;12.27;11.10;;;16.90;99.90;;;;;;5037321;28;20202;-69
2023/09/17 04:46:29;;;;;;;12.47;11.17;;;16.90;99.90;;;;;;5036096;28;20748;-70
2023/09/17 04:48:55;;;;;;;13.23;10.40;;;16.90;99.90;;;;;;5014462;28;20975;-70
2023/09/17 04:51:21;;;;;;;12.37;11.17;;;16.90;99.90;;;;;;5034074;28;20217;-69
2023/09/17 04:53:47;;;;;;;11.40;10.30;;;16.80;99.90;;;;;;5044265;28;20201;-69
2023/09/17 04:56:12;;;;;;;12.40;11.10;;;16.80;99.90;;;;;;5037750;28;20240;-69
2023/09/17 04:58:38;;;;;;;11.60;10.33;;;16.80;99.90;;;;;;5039478;28;20309;-69
2023/09/17 05:01:06;;;;;;;13.20;11.20;;;16.80;99.90;;;;;;5033815;28;20662;-70
2023/09/17 05:03:32;;;;;;;11.07;10.07;;;16.70;99.90;;;;;;5035713;28;20416;-71
2023/09/17 05:05:57;;;;;;;12.67;11.50;;;16.70;99.90;;;;;;5034721;28;20954;-70
2023/09/17 05:08:24;;;;;;;12.83;11.57;;;16.70;99.90;;;;;;5032060;28;20217;-70
2023/09/17 05:10:50;;;;;;;12.40;11.07;;;16.70;99.90;;;;;;5041701;28;20288;-64
2023/09/17 05:13:15;;;;;;;13.07;11.37;;;16.70;99.90;;;;;;5033486;28;20205;-64
2023/09/17 05:15:40;;;;;;;13.77;11.93;;;16.70;99.90;;;;;;5039872;28;20718;-64
2023/09/17 05:18:09;;;;;;;12.90;11.23;;;16.70;99.90;;;;;;5041845;28;20219;-64
2023/09/17 05:20:40;;;;;;;12.30;11.00;;;16.70;99.90;;;;;;5031353;28;20285;-65
2023/09/17 05:23:06;;;;;;;12.30;11.10;;;16.60;99.90;;;;;;5035424;28;20954;-65
2023/09/17 05:25:32;;;;;;;15.30;12.93;;;16.70;99.90;;;;;;5037324;28;20187;-65
2023/09/17 05:27:57;;;;;;;12.90;11.60;;;16.70;99.90;;;;;;5039331;28;20206;-70
2023/09/17 05:30:23;;;;;;;16.67;11.97;;;16.70;99.90;;;;;;5040499;28;20260;-70
2023/09/17 05:32:48;;;;;;;13.03;11.83;;;16.80;99.90;;;;;;5033862;28;20804;-70
2023/09/17 05:35:14;;;;;;;12.07;10.87;;;16.70;99.90;;;;;;5037152;28;20429;-67
2023/09/17 05:37:39;;;;;;;13.93;12.63;;;16.90;99.90;;;;;;5038015;28;20291;-68
2023/09/17 05:40:06;;;;;;;14.53;12.27;;;16.80;99.90;;;;;;5039672;28;20204;-64
2023/09/17 05:42:33;;;;;;;12.00;10.80;;;16.90;99.90;;;;;;5034826;28;20266;-64
2023/09/17 05:44:58;;;;;;;12.57;11.30;;;16.80;99.90;;;;;;5036333;28;20200;-66
2023/09/17 05:47:24;;;;;;;11.93;10.83;;;16.90;99.90;;;;;;5034207;28;20609;-65
2023/09/17 05:49:50;;;;;;;11.87;10.57;;;16.90;99.90;;;;;;5040972;28;20696;-65
2023/09/17 05:52:16;;;;;;;16.63;12.40;;;17.00;99.90;;;;;;5027648;28;20226;-65
2023/09/17 05:54:41;;;;;;;11.67;10.53;;;17.00;99.90;;;;;;5037689;28;20398;-65
2023/09/17 05:57:07;;;;;;;14.90;11.77;;;17.10;99.90;;;;;;5035068;28;20204;-65
2023/09/17 05:59:33;;;;;;;14.83;12.27;;;17.20;99.90;;;;;;5037204;28;20216;-65
2023/09/17 06:01:59;;;;;;;14.13;12.63;;;17.20;99.90;;;;;;5019479;28;20192;-66
2023/09/17 06:04:24;;;;;;;13.67;12.27;;;17.20;99.90;;;;;;5030974;28;20196;-67
2023/09/17 06:06:50;;;;;;;12.57;11.27;;;17.20;99.90;;;;;;5037943;28;20207;-67
2023/09/17 06:09:15;;;;;;;13.83;12.43;;;17.20;99.90;;;;;;5029615;28;20187;-67
2023/09/17 06:11:41;;;;;;;16.87;13.53;;;17.30;99.90;;;;;;5015968;28;20211;-68
2023/09/17 06:14:06;;;;;;;13.83;12.07;;;17.40;99.90;;;;;;5029423;28;20209;-68
2023/09/17 06:16:32;;;;;;;13.30;11.90;;;17.50;99.90;;;;;;5039477;28;20211;-68
2023/09/17 06:18:57;;;;;;;17.53;13.23;;;17.60;99.90;;;;;;5037432;28;20197;-67
2023/09/17 06:21:23;;;;;;;13.40;12.03;;;17.60;99.90;;;;;;5037368;28;20697;-66
2023/09/17 06:23:49;;;;;;;12.77;11.47;;;17.70;99.90;;;;;;5040424;28;20201;-66
2023/09/17 06:26:15;;;;;;;12.27;11.13;;;17.80;99.90;;;;;;5038172;28;20336;-66
2023/09/17 06:28:40;;;;;;;13.37;11.60;;;17.80;99.90;;;;;;5033424;28;21097;-66
2023/09/17 06:31:07;;;;;;;15.47;12.03;;;17.90;99.90;;;;;;5036824;28;20233;-67
2023/09/17 06:33:34;;;;;;;13.10;11.87;;;17.90;99.90;;;;;;5036336;28;20219;-66
2023/09/17 06:35:59;;;;;;;13.13;11.83;;;18.00;99.90;;;;;;5036621;28;20262;-66
2023/09/17 06:38:25;;;;;;;17.27;12.53;;;18.10;99.90;;;;;;5032807;28;20932;-66
2023/09/17 06:40:50;;;;;;;17.47;13.40;;;18.20;99.90;;;;;;5017361;28;20285;-68
2023/09/17 06:43:16;;;;;;;13.60;12.27;;;18.30;99.90;;;;;;5037539;28;20670;-66
2023/09/17 06:45:41;;;;;;;15.30;13.73;;;18.30;99.90;;;;;;5026461;28;20660;-65
2023/09/17 06:48:07;;;;;;;14.40;13.00;;;18.20;99.90;;;;;;5029585;28;20224;-65
2023/09/17 06:50:32;;;;;;;16.20;14.17;;;18.30;99.90;;;;;;5035159;28;20207;-65
2023/09/17 06:52:57;;;;;;;14.10;12.80;;;18.30;99.90;;;;;;5035178;28;20576;-65
2023/09/17 06:55:23;;;;;;;14.30;12.93;;;18.20;99.90;;;;;;5033405;28;20625;-65
2023/09/17 06:57:48;;;;;;;15.30;13.70;;;18.20;99.90;;;;;;5035956;28;20695;-65
2023/09/17 07:00:15;;;;;;;17.97;14.50;;;18.30;99.90;;;;;;5017935;28;20691;-65
2023/09/17 07:02:41;;;;;;;16.23;14.40;;;18.30;99.90;;;;;;5035773;28;20194;-64
2023/09/17 07:05:08;;;;;;;16.40;13.87;;;18.40;99.90;;;;;;5034783;28;20216;-64
2023/09/17 07:07:34;;;;;;;17.30;14.40;;;18.40;99.90;;;;;;5012305;28;20566;-64
2023/09/17 07:10:00;;;;;;;16.57;14.37;;;18.40;99.90;;;;;;5020379;28;20313;-64
2023/09/17 07:12:25;;;;;;;15.70;13.47;;;18.40;99.90;;;;;;5040156;28;20210;-64
2023/09/17 07:14:51;;;;;;;14.97;12.80;;;18.50;99.90;;;;;;5019009;28;20272;-64
2023/09/17 07:17:16;;;;;;;14.93;13.50;;;18.50;99.90;;;;;;5035860;28;20212;-64
2023/09/17 07:19:42;;;;;;;20.07;12.67;;;18.50;99.90;;;;;;5021527;28;20219;-65
2023/09/17 07:22:11;;;;;;;14.30;12.90;;;18.60;99.90;;;;;;5031993;28;20307;-64
2023/09/17 07:24:37;;;;;;;13.27;11.87;;;18.80;99.90;;;;;;5034300;28;20687;-65
2023/09/17 07:27:03;;;;;;;14.03;11.63;;;18.90;99.90;;;;;;5036646;28;20257;-65
2023/09/17 07:29:29;;;;;;;13.03;11.93;;;19.00;99.90;;;;;;5037715;28;20284;-75
2023/09/17 07:31:54;;;;;;;13.97;12.43;;;19.10;99.90;;;;;;5033278;28;20216;-64
2023/09/17 07:34:20;;;;;;;15.57;13.83;;;19.30;99.90;;;;;;5012799;28;20268;-64
2023/09/17 07:36:45;;;;;;;14.87;13.23;;;19.30;99.90;;;;;;5033251;28;20205;-63
2023/09/17 07:39:11;;;;;;;15.93;11.70;;;19.30;99.90;;;;;;5031488;28;20351;-65
2023/09/17 07:41:37;;;;;;;12.57;11.13;;;19.30;99.90;;;;;;5035061;28;20222;-70
2023/09/17 07:44:02;;;;;;;13.57;12.00;;;19.40;99.90;;;;;;5028861;28;20199;-70
2023/09/17 07:46:28;;;;;;;12.00;10.63;;;19.60;99.90;;;;;;5033973;28;20232;-71
2023/09/17 07:48:53;;;;;;;12.67;10.90;;;19.70;99.90;;;;;;5027778;28;20405;-70
2023/09/17 07:51:19;;;;;;;12.73;11.37;;;19.80;99.90;;;;;;5033120;28;20294;-70
2023/09/17 07:53:44;;;;;;;13.53;11.30;;;19.90;99.90;;;;;;5034328;28;20230;-70
2023/09/17 07:56:10;;;;;;;14.03;12.20;;;19.90;99.90;;;;;;5015762;28;20211;-70
2023/09/17 07:58:36;;;;;;;13.50;11.40;;;20.00;99.90;;;;;;5039767;28;20198;-73
2023/09/17 08:01:04;;;;;;;12.17;10.97;;;20.10;99.90;;;;;;5040595;28;20212;-65
2023/09/17 08:03:30;;;;;;;12.90;11.70;;;20.10;99.90;;;;;;5043982;28;20290;-70
2023/09/17 08:05:56;;;;;;;14.50;11.03;;;20.10;99.90;;;;;;5036866;28;20281;-70
2023/09/17 08:08:22;;;;;;;15.67;11.30;;;20.10;99.90;;;;;;5032083;28;20316;-68
2023/09/17 08:10:49;;;;;;;13.93;12.50;;;20.20;99.90;;;;;;5037954;28;20197;-70
2023/09/17 08:13:14;;;;;;;12.40;11.23;;;20.30;99.90;;;;;;5025233;28;20240;-69
2023/09/17 08:15:40;;;;;;;13.60;12.30;;;20.40;99.90;;;;;;5021763;28;20201;-66
2023/09/17 08:18:06;;;;;;;12.07;10.93;;;20.20;99.90;;;;;;5022260;28;20199;-69
2023/09/17 08:20:32;;;;;;;11.73;10.53;;;20.30;99.90;;;;;;5038625;28;20203;-70
2023/09/17 08:22:58;;;;;;;11.83;10.67;;;20.40;99.90;;;;;;5039931;28;20337;-74
2023/09/17 08:25:24;;;;;;;14.33;10.70;;;20.60;99.90;;;;;;5019168;28;20716;-63
2023/09/17 08:27:52;;;;;;;11.10;10.10;;;20.60;99.90;;;;;;5034647;28;20203;-63
2023/09/17 08:30:19;;;;;;;12.50;11.40;;;20.60;99.90;;;;;;5037489;28;20201;-63
2023/09/17 08:32:44;;;;;;;11.90;10.70;;;20.70;99.90;;;;;;5039525;28;21180;-61
2023/09/17 08:35:14;;;;;;;13.57;11.17;;;20.50;99.90;;;;;;5038318;28;20202;-61
2023/09/17 08:37:43;;;;;;;11.20;10.13;;;20.60;99.90;;;;;;5039491;28;20821;-65
2023/09/17 08:40:14;;;;;;;13.07;10.50;;;20.80;99.90;;;;;;5039528;28;20201;-68
2023/09/17 08:42:41;;;;;;;11.60;10.27;;;20.80;99.90;;;;;;5034923;28;20190;-68
2023/09/17 08:45:09;;;;;;;15.17;9.33;;;20.90;99.90;;;;;;5036812;28;20592;-66
2023/09/17 08:47:35;;;;;;;12.73;11.43;;;21.10;99.90;;;;;;5025695;28;20898;-66
2023/09/17 08:50:01;;;;;;;12.93;11.57;;;21.10;99.90;;;;;;5042293;28;20275;-69
2023/09/17 08:52:31;;;;;;;13.53;12.23;;;21.10;99.90;;;;;;5038630;28;20237;-65
2023/09/17 08:54:57;;;;;;;14.63;10.27;;;21.20;99.90;;;;;;5040268;28;20210;-65
2023/09/17 08:57:25;;;;;;;8.83;7.97;;;21.20;99.90;;;;;;5038205;28;20202;-65
2023/09/17 09:00:10;;;;;;;11.13;9.90;;;21.30;99.90;;;;;;5030302;28;20298;-62
2023/09/17 09:02:43;;;;;;;11.30;10.20;;;21.30;99.90;;;;;;5035895;28;20293;-61
2023/09/17 09:05:11;;;;;;;9.27;8.37;;;21.40;99.90;;;;;;5039533;28;20210;-61
2023/09/17 09:07:38;;;;;;;11.47;10.30;;;21.60;99.90;;;;;;5034604;28;20217;-61
2023/09/17 09:10:04;;;;;;;10.55;9.45;;;21.80;99.90;;;;;;5037071;28;20287;-61
2023/09/17 09:12:30;;;;;;;11.13;10.03;;;21.80;99.90;;;;;;5038632;28;20214;-61
2023/09/17 09:14:57;;;;;;;10.97;9.93;;;21.90;99.90;;;;;;5013402;28;20195;-61
2023/09/17 09:17:23;;;;;;;11.07;10.07;;;21.90;99.90;;;;;;5034892;28;20222;-58
2023/09/17 09:19:48;;;;;;;10.30;9.30;;;22.00;99.90;;;;;;5035279;28;20860;-61
2023/09/17 09:22:14;;;;;;;11.20;10.10;;;22.10;99.90;;;;;;5037416;28;20373;-63
2023/09/17 09:24:48;;;;;;;11.63;9.53;;;22.20;99.90;;;;;;5035819;28;20759;-63
2023/09/17 09:27:15;;;;;;;10.23;9.17;;;22.00;99.90;;;;;;5037420;28;20191;-62
2023/09/17 09:29:43;;;;;;;10.63;9.63;;;22.00;99.90;;;;;;5041399;28;20264;-62
2023/09/17 09:32:10;;;;;;;10.97;9.87;;;22.00;99.90;;;;;;5041365;28;20210;-62
2023/09/17 09:34:37;;;;;;;10.93;9.80;;;21.90;99.90;;;;;;5033688;28;20314;-65
2023/09/17 09:37:08;;;;;;;11.75;8.15;;;22.00;99.90;;;;;;5037569;28;20218;-65
2023/09/17 09:39:37;;;;;;;10.07;9.07;;;22.00;99.90;;;;;;5019269;28;20222;-66
2023/09/17 09:42:07;;;;;;;10.13;8.40;;;22.10;99.90;;;;;;5018405;28;20211;-66
2023/09/17 09:44:34;;;;;;;10.13;9.23;;;22.30;99.90;;;;;;5035375;28;20233;-66
2023/09/17 09:47:02;;;;;;;9.43;8.03;;;22.50;99.90;;;;;;5031357;28;20217;-62
2023/09/17 09:49:28;;;;;;;9.75;8.82;;;22.40;99.90;;;;;;5015046;28;20285;-64
2023/09/17 09:51:57;;;;;;;9.40;8.17;;;22.20;99.90;;;;;;5040753;28;20215;-63
2023/09/17 09:54:23;;;;;;;7.80;7.18;;;22.30;99.90;;;;;;5038707;28;20199;-66
2023/09/17 09:56:49;;;;;;;8.30;7.50;;;22.40;99.90;;;;;;5031757;28;20256;-67
2023/09/17 09:59:15;;;;;;;8.43;7.63;;;22.30;99.90;;;;;;5034130;28;20283;-67
2023/09/17 10:01:41;;;;;;;8.90;8.10;;;22.40;99.90;;;;;;5036949;28;20209;-67
2023/09/17 10:04:11;;;;;;;7.13;6.47;;;22.50;99.90;;;;;;5038287;28;20225;-67
2023/09/17 10:06:40;;;;;;;7.70;7.00;;;22.70;99.90;;;;;;5016450;28;20245;-66
2023/09/17 10:09:06;;;;;;;8.63;7.87;;;22.90;99.90;;;;;;5038638;28;20272;-63
2023/09/17 10:11:32;;;;;;;8.55;6.78;;;23.10;99.90;;;;;;5036716;28;20234;-65
2023/09/17 10:14:05;;;;;;;8.27;7.63;;;23.00;99.90;;;;;;5038800;28;20297;-64
2023/09/17 10:16:33;;;;;;;8.85;8.02;;;22.90;99.90;;;;;;5032412;28;20195;-62
2023/09/17 10:19:00;;;;;;;10.18;9.27;;;23.00;99.90;;;;;;5038705;28;20213;-61
2023/09/17 10:21:27;;;;;;;8.18;6.75;;;23.00;99.90;;;;;;5030268;28;20702;-61
2023/09/17 10:23:54;;;;;;;6.95;6.35;;;23.00;99.90;;;;;;5040218;28;20214;-61
2023/09/17 10:26:22;;;;;;;8.68;7.88;;;23.00;99.90;;;;;;5032966;28;21222;-61
2023/09/17 10:28:49;;;;;;;9.98;7.05;;;23.00;99.90;;;;;;5035029;28;20203;-61
2023/09/17 10:31:15;;;;;;;8.13;7.40;;;23.10;99.90;;;;;;4999016;28;20222;-61
2023/09/17 10:33:46;;;;;;;7.72;7.03;;;23.10;99.90;;;;;;5034807;28;20201;-63
2023/09/17 10:36:13;;;;;;;8.15;7.35;;;23.20;99.90;;;;;;5028610;28;20207;-62
2023/09/17 10:38:39;;;;;;;6.82;6.22;;;23.00;99.90;;;;;;5034465;28;20692;-64
2023/09/17 10:41:06;;;;;;;8.60;7.80;;;23.00;99.90;;;;;;5033710;28;20206;-64
2023/09/17 10:43:35;;;;;;;6.20;5.63;;;23.10;99.90;;;;;;5030023;28;20857;-63
2023/09/17 10:46:02;;;;;;;7.35;6.55;;;23.40;99.90;;;;;;5031027;28;20216;-62
2023/09/17 10:48:30;;;;;;;8.25;6.80;;;23.60;99.90;;;;;;5012143;28;20231;-63
2023/09/17 10:50:57;;;;;;;8.05;7.25;;;23.70;99.90;;;;;;5034412;28;20203;-64
2023/09/17 10:53:25;;;;;;;8.23;6.93;;;24.10;99.90;;;;;;5037727;28;20231;-63
2023/09/17 10:55:59;;;;;;;9.27;6.82;;;24.20;99.90;;;;;;5018326;28;20204;-65
2023/09/17 10:58:30;;;;;;;8.13;7.40;;;24.10;99.90;;;;;;5040333;28;20197;-65
2023/09/17 11:00:58;;;;;;;8.40;7.25;;;24.80;99.90;;;;;;5035482;28;20317;-64
2023/09/17 11:03:26;;;;;;;5.97;5.47;;;25.40;99.90;;;;;;5035369;28;20667;-64
2023/09/17 11:05:55;;;;;;;5.60;4.90;;;25.40;99.90;;;;;;5039221;28;20206;-64
2023/09/17 11:08:21;;;;;;;7.45;6.60;;;25.00;99.90;;;;;;5032757;28;20285;-64
2023/09/17 11:10:47;;;;;;;6.63;6.13;;;25.00;99.90;;;;;;5014285;28;20266;-65
2023/09/17 11:13:13;;;;;;;7.00;6.32;;;25.00;99.90;;;;;;5037429;28;20241;-63
2023/09/17 11:15:41;;;;;;;7.28;6.63;;;24.80;99.90;;;;;;5035428;28;20271;-64
2023/09/17 11:18:07;;;;;;;7.82;7.13;;;24.60;99.90;;;;;;5033605;28;20206;-65
2023/09/17 11:20:33;;;;;;;8.20;5.30;;;24.60;99.90;;;;;;5032122;28;20193;-65
2023/09/17 11:23:01;;;;;;;5.57;5.18;;;24.80;99.90;;;;;;5035372;28;20211;-66
2023/09/17 11:25:39;;;;;;;6.40;5.90;;;24.70;99.90;;;;;;5035032;28;20545;-66
2023/09/17 11:28:12;;;;;;;5.80;5.30;;;24.80;99.90;;;;;;5016312;28;20208;-65
2023/09/17 11:30:57;;;;;;;10.13;8.45;;;24.90;99.90;;;;;;5013911;28;20214;-65
2023/09/17 11:33:24;;;;;;;7.45;6.75;;;25.20;99.90;;;;;;5032038;28;20703;-62
2023/09/17 11:35:50;;;;;;;7.43;6.80;;;25.60;99.90;;;;;;5035020;28;20202;-62
2023/09/17 11:38:16;;;;;;;5.97;5.53;;;25.60;99.90;;;;;;5035177;28;20684;-62
2023/09/17 11:40:44;;;;;;;5.72;5.22;;;25.70;99.90;;;;;;5037343;28;20951;-64
2023/09/17 11:43:13;;;;;;;6.97;5.13;;;25.60;99.90;;;;;;5036513;28;20670;-63
2023/09/17 11:45:39;;;;;;;6.30;5.75;;;25.60;99.90;;;;;;5028470;28;20205;-62
2023/09/17 11:48:07;;;;;;;5.95;5.45;;;25.80;99.90;;;;;;5034306;28;20244;-62
2023/09/17 11:50:32;;;;;;;5.75;5.25;;;26.40;98.60;;;;;;5030863;28;20205;-62
2023/09/17 11:53:07;;;;;;;6.20;5.65;;;27.10;96.80;;;;;;5016279;28;20245;-62
2023/09/17 11:55:34;;;;;;;6.22;5.15;;;27.70;96.00;;;;;;5020917;28;20198;-62
2023/09/17 11:58:19;;;;;;;5.50;5.10;;;27.60;96.20;;;;;;5034972;28;20187;-62
2023/09/17 12:00:45;;;;;;;5.47;4.95;;;27.30;97.40;;;;;;5029055;28;20195;-65
2023/09/17 12:03:14;;;;;;;8.30;4.85;;;27.50;97.10;;;;;;5038098;28;20205;-65
2023/09/17 12:05:39;;;;;;;5.38;4.97;;;27.30;97.00;;;;;;5027484;28;20207;-66
2023/09/17 12:08:06;;;;;;;6.07;5.57;;;27.40;95.60;;;;;;5035834;28;20604;-64
2023/09/17 12:10:36;;;;;;;5.03;4.63;;;28.70;91.80;;;;;;5039280;28;20201;-69
2023/09/17 12:13:04;;;;;;;5.43;5.03;;;29.40;90.40;;;;;;5035546;28;20227;-66
2023/09/17 12:15:31;;;;;;;5.18;4.78;;;29.10;92.30;;;;;;5037114;28;20198;-62
2023/09/17 12:17:57;;;;;;;5.07;4.68;;;29.10;90.00;;;;;;5038862;28;20210;-62
2023/09/17 12:20:41;;;;;;;5.68;5.15;;;28.50;91.80;;;;;;5034031;28;20187;-63
2023/09/17 12:23:14;;;;;;;6.00;5.40;;;28.50;92.20;;;;;;5015852;28;20763;-64
2023/09/17 12:25:46;;;;;;;4.75;4.45;;;29.00;90.00;;;;;;5035668;28;20205;-64
2023/09/17 12:28:11;;;;;;;5.93;5.43;;;29.40;90.00;;;;;;5009668;28;20282;-63
2023/09/17 12:30:37;;;;;;;5.40;5.00;;;29.10;91.00;;;;;;5034223;28;20217;-63
2023/09/17 12:33:03;;;;;;;4.55;4.25;;;29.00;91.20;;;;;;5032829;28;20239;-64